sensor_id;sensor_type;location;lat;lon;timestamp;temperature;humidity
75210;DHT22;63796;53.136;14.882;2024-02-26T00:02:24;3.10;99.90
75210;DHT22;63796;53.136;14.882;2024-02-26T00:04:52;3.00;99.90
75210;DHT22;63796;53.136;14.882;2024-02-26T00:07:19;3.00;99.90
75210;DHT22;63796;53.136;14.882;2024-02-26T00:09:47;2.80;99.90
75210;DHT22;63796;53.136;14.882;2024-02-26T00:12:14;2.60;99.90
75210;DHT22;63796;53.136;14.882;2024-02-26T00:14:41;2.70;99.90
75210;DHT22;63796;53.136;14.882;2024-02-26T00:17:09;2.50;99.90
75210;DHT22;63796;53.136;14.882;2024-02-26T00:19:36;2.60;99.90
75210;DHT22;63796;53.136;14.882;2024-02-26T00:22:04;2.70;99.90
75210;DHT22;63796;53.136;14.882;2024-02-26T00:24:31;2.80;99.90
75210;DHT22;63796;53.136;14.882;2024-02-26T00:26:59;2.90;99.90
75210;DHT22;63796;53.136;14.882;2024-02-26T00:29:26;2.70;99.90
75210;DHT22;63796;53.136;14.882;2024-02-26T00:31:54;2.70;99.90
75210;DHT22;63796;53.136;14.882;2024-02-26T00:34:21;2.90;99.90
75210;DHT22;63796;53.136;14.882;2024-02-26T00:36:48;2.80;99.90
75210;DHT22;63796;53.136;14.882;2024-02-26T00:39:16;2.80;99.90
75210;DHT22;63796;53.136;14.882;2024-02-26T00:41:43;2.70;99.90
75210;DHT22;63796;53.136;14.882;2024-02-26T00:44:11;2.80;99.90
75210;DHT22;63796;53.136;14.882;2024-02-26T00:46:38;2.70;99.90
75210;DHT22;63796;53.136;14.882;2024-02-26T00:49:06;2.60;99.90
75210;DHT22;63796;53.136;14.882;2024-02-26T00:51:33;2.60;99.90
75210;DHT22;63796;53.136;14.882;2024-02-26T00:54:01;2.50;99.90
75210;DHT22;63796;53.136;14.882;2024-02-26T00:56:29;2.60;99.90
75210;DHT22;63796;53.136;14.882;2024-02-26T00:58:56;2.60;99.90
75210;DHT22;63796;53.136;14.882;2024-02-26T01:01:24;2.60;99.90
75210;DHT22;63796;53.136;14.882;2024-02-26T01:03:52;2.70;99.90
75210;DHT22;63796;53.136;14.882;2024-02-26T01:06:19;2.60;99.90
75210;DHT22;63796;53.136;14.882;2024-02-26T01:08:47;2.70;99.90
75210;DHT22;63796;53.136;14.882;2024-02-26T01:11:14;2.70;99.90
75210;DHT22;63796;53.136;14.882;2024-02-26T01:13:41;2.70;99.90
75210;DHT22;63796;53.136;14.882;2024-02-26T01:16:09;2.60;99.90
75210;DHT22;63796;53.136;14.882;2024-02-26T01:18:37;2.70;99.90
75210;DHT22;63796;53.136;14.882;2024-02-26T01:21:05;2.80;99.90
75210;DHT22;63796;53.136;14.882;2024-02-26T01:23:35;2.90;99.90
75210;DHT22;63796;53.136;14.882;2024-02-26T01:26:03;2.80;99.90
75210;DHT22;63796;53.136;14.882;2024-02-26T01:28:31;2.70;99.90
75210;DHT22;63796;53.136;14.882;2024-02-26T01:30:59;2.70;99.90
75210;DHT22;63796;53.136;14.882;2024-02-26T01:33:26;2.80;99.90
75210;DHT22;63796;53.136;14.882;2024-02-26T01:35:54;2.90;99.90
75210;DHT22;63796;53.136;14.882;2024-02-26T01:38:22;2.90;99.90
75210;DHT22;63796;53.136;14.882;2024-02-26T01:40:49;3.00;99.90
75210;DHT22;63796;53.136;14.882;2024-02-26T01:43:16;2.90;99.90
75210;DHT22;63796;53.136;14.882;2024-02-26T01:45:44;2.70;99.90
75210;DHT22;63796;53.136;14.882;2024-02-26T01:48:11;2.60;99.90
75210;DHT22;63796;53.136;14.882;2024-02-26T01:50:39;2.60;99.90
75210;DHT22;63796;53.136;14.882;2024-02-26T01:53:07;2.50;99.90
75210;DHT22;63796;53.136;14.882;2024-02-26T01:55:36;2.40;99.90
75210;DHT22;63796;53.136;14.882;2024-02-26T01:58:05;2.40;99.90
75210;DHT22;63796;53.136;14.882;2024-02-26T02:00:34;2.40;99.90
75210;DHT22;63796;53.136;14.882;2024-02-26T02:03:02;2.50;99.90
75210;DHT22;63796;53.136;14.882;2024-02-26T02:05:31;2.60;99.90
75210;DHT22;63796;53.136;14.882;2024-02-26T02:07:58;2.70;99.90
75210;DHT22;63796;53.136;14.882;2024-02-26T02:10:26;2.70;99.90
75210;DHT22;63796;53.136;14.882;2024-02-26T02:12:54;2.70;99.90
75210;DHT22;63796;53.136;14.882;2024-02-26T02:15:22;2.60;99.90
75210;DHT22;63796;53.136;14.882;2024-02-26T02:17:50;2.60;99.90
75210;DHT22;63796;53.136;14.882;2024-02-26T02:20:18;2.70;99.90
75210;DHT22;63796;53.136;14.882;2024-02-26T02:22:46;2.70;99.90
75210;DHT22;63796;53.136;14.882;2024-02-26T02:25:14;2.70;99.90
75210;DHT22;63796;53.136;14.882;2024-02-26T02:27:43;2.70;99.90
75210;DHT22;63796;53.136;14.882;2024-02-26T02:30:11;2.70;99.90
75210;DHT22;63796;53.136;14.882;2024-02-26T02:32:39;2.70;99.90
75210;DHT22;63796;53.136;14.882;2024-02-26T02:35:11;2.60;99.90
75210;DHT22;63796;53.136;14.882;2024-02-26T02:37:40;2.70;99.90
75210;DHT22;63796;53.136;14.882;2024-02-26T02:40:08;2.50;99.90
75210;DHT22;63796;53.136;14.882;2024-02-26T02:42:35;2.50;99.90
75210;DHT22;63796;53.136;14.882;2024-02-26T02:45:03;2.60;99.90
75210;DHT22;63796;53.136;14.882;2024-02-26T02:47:35;2.70;99.90
75210;DHT22;63796;53.136;14.882;2024-02-26T02:50:03;2.40;99.90
75210;DHT22;63796;53.136;14.882;2024-02-26T02:52:31;2.20;99.90
75210;DHT22;63796;53.136;14.882;2024-02-26T02:54:58;2.40;99.90
75210;DHT22;63796;53.136;14.882;2024-02-26T02:57:26;2.50;99.90
75210;DHT22;63796;53.136;14.882;2024-02-26T02:59:53;2.50;99.90
75210;DHT22;63796;53.136;14.882;2024-02-26T03:02:21;2.60;99.90
75210;DHT22;63796;53.136;14.882;2024-02-26T03:04:48;2.40;99.90
75210;DHT22;63796;53.136;14.882;2024-02-26T03:07:16;2.30;99.90
75210;DHT22;63796;53.136;14.882;2024-02-26T03:09:43;2.20;99.90
75210;DHT22;63796;53.136;14.882;2024-02-26T03:12:10;2.00;99.90
75210;DHT22;63796;53.136;14.882;2024-02-26T03:14:38;1.90;99.90
75210;DHT22;63796;53.136;14.882;2024-02-26T03:17:05;1.90;99.90
75210;DHT22;63796;53.136;14.882;2024-02-26T03:19:33;1.90;99.90
75210;DHT22;63796;53.136;14.882;2024-02-26T03:22:00;1.90;99.90
75210;DHT22;63796;53.136;14.882;2024-02-26T03:24:28;1.80;99.90
75210;DHT22;63796;53.136;14.882;2024-02-26T03:26:55;1.50;99.90
75210;DHT22;63796;53.136;14.882;2024-02-26T03:29:23;1.60;99.90
75210;DHT22;63796;53.136;14.882;2024-02-26T03:31:53;1.90;99.90
75210;DHT22;63796;53.136;14.882;2024-02-26T03:34:20;2.10;99.90
75210;DHT22;63796;53.136;14.882;2024-02-26T03:36:47;2.20;99.90
75210;DHT22;63796;53.136;14.882;2024-02-26T03:39:15;2.20;99.90
75210;DHT22;63796;53.136;14.882;2024-02-26T03:41:42;2.20;99.90
75210;DHT22;63796;53.136;14.882;2024-02-26T03:44:09;2.10;99.90
75210;DHT22;63796;53.136;14.882;2024-02-26T03:46:37;1.90;99.90
75210;DHT22;63796;53.136;14.882;2024-02-26T03:49:04;1.70;99.90
75210;DHT22;63796;53.136;14.882;2024-02-26T03:51:32;1.80;99.90
75210;DHT22;63796;53.136;14.882;2024-02-26T03:54:00;1.90;99.90
75210;DHT22;63796;53.136;14.882;2024-02-26T03:56:28;1.90;99.90
75210;DHT22;63796;53.136;14.882;2024-02-26T03:58:55;1.90;99.90
75210;DHT22;63796;53.136;14.882;2024-02-26T04:01:23;1.80;99.90
75210;DHT22;63796;53.136;14.882;2024-02-26T04:03:50;1.70;99.90
75210;DHT22;63796;53.136;14.882;2024-02-26T04:06:17;1.70;99.90
75210;DHT22;63796;53.136;14.882;2024-02-26T04:08:47;1.70;99.90
75210;DHT22;63796;53.136;14.882;2024-02-26T04:11:15;1.70;99.90
75210;DHT22;63796;53.136;14.882;2024-02-26T04:13:45;1.60;99.90
75210;DHT22;63796;53.136;14.882;2024-02-26T04:16:13;1.60;99.90
75210;DHT22;63796;53.136;14.882;2024-02-26T04:18:42;1.60;99.90
75210;DHT22;63796;53.136;14.882;2024-02-26T04:21:09;1.60;99.90
75210;DHT22;63796;53.136;14.882;2024-02-26T04:23:37;1.70;99.90
75210;DHT22;63796;53.136;14.882;2024-02-26T04:26:04;1.70;99.90
75210;DHT22;63796;53.136;14.882;2024-02-26T04:28:32;1.90;99.90
75210;DHT22;63796;53.136;14.882;2024-02-26T04:31:00;1.80;99.90
75210;DHT22;63796;53.136;14.882;2024-02-26T04:33:29;1.60;99.90
75210;DHT22;63796;53.136;14.882;2024-02-26T04:35:56;1.50;99.90
75210;DHT22;63796;53.136;14.882;2024-02-26T04:38:26;1.50;99.90
75210;DHT22;63796;53.136;14.882;2024-02-26T04:40:53;1.50;99.90
75210;DHT22;63796;53.136;14.882;2024-02-26T04:43:21;1.50;99.90
75210;DHT22;63796;53.136;14.882;2024-02-26T04:45:48;1.50;99.90
75210;DHT22;63796;53.136;14.882;2024-02-26T04:48:15;1.50;99.90
75210;DHT22;63796;53.136;14.882;2024-02-26T04:50:43;1.30;99.90
75210;DHT22;63796;53.136;14.882;2024-02-26T04:53:11;1.40;99.90
75210;DHT22;63796;53.136;14.882;2024-02-26T04:55:38;1.30;99.90
75210;DHT22;63796;53.136;14.882;2024-02-26T04:58:06;1.30;99.90
75210;DHT22;63796;53.136;14.882;2024-02-26T05:00:33;1.30;99.90
75210;DHT22;63796;53.136;14.882;2024-02-26T05:03:01;1.30;99.90
75210;DHT22;63796;53.136;14.882;2024-02-26T05:05:28;1.30;99.90
75210;DHT22;63796;53.136;14.882;2024-02-26T05:07:58;1.30;99.90
75210;DHT22;63796;53.136;14.882;2024-02-26T05:10:25;1.30;99.90
75210;DHT22;63796;53.136;14.882;2024-02-26T05:12:52;1.20;99.90
75210;DHT22;63796;53.136;14.882;2024-02-26T05:15:20;1.30;99.90
75210;DHT22;63796;53.136;14.882;2024-02-26T05:17:47;1.20;99.90
75210;DHT22;63796;53.136;14.882;2024-02-26T05:20:17;1.00;99.90
75210;DHT22;63796;53.136;14.882;2024-02-26T05:22:44;1.00;99.90
75210;DHT22;63796;53.136;14.882;2024-02-26T05:25:12;1.00;99.90
75210;DHT22;63796;53.136;14.882;2024-02-26T05:27:42;1.20;99.90
75210;DHT22;63796;53.136;14.882;2024-02-26T05:30:11;1.10;99.90
75210;DHT22;63796;53.136;14.882;2024-02-26T05:32:39;1.10;99.90
75210;DHT22;63796;53.136;14.882;2024-02-26T05:35:06;1.00;99.90
75210;DHT22;63796;53.136;14.882;2024-02-26T05:37:34;1.00;99.90
75210;DHT22;63796;53.136;14.882;2024-02-26T05:40:02;1.10;99.90
75210;DHT22;63796;53.136;14.882;2024-02-26T05:42:31;1.00;99.90
75210;DHT22;63796;53.136;14.882;2024-02-26T05:44:59;1.10;99.90
75210;DHT22;63796;53.136;14.882;2024-02-26T05:47:33;1.10;99.90
75210;DHT22;63796;53.136;14.882;2024-02-26T05:50:01;1.10;99.90
75210;DHT22;63796;53.136;14.882;2024-02-26T05:52:29;1.20;99.90
75210;DHT22;63796;53.136;14.882;2024-02-26T05:54:58;1.00;99.90
75210;DHT22;63796;53.136;14.882;2024-02-26T05:57:25;1.10;99.90
75210;DHT22;63796;53.136;14.882;2024-02-26T05:59:52;1.00;99.90
75210;DHT22;63796;53.136;14.882;2024-02-26T06:02:20;0.90;99.90
75210;DHT22;63796;53.136;14.882;2024-02-26T06:04:48;0.90;99.90
75210;DHT22;63796;53.136;14.882;2024-02-26T06:07:15;1.00;99.90
75210;DHT22;63796;53.136;14.882;2024-02-26T06:09:42;1.00;99.90
75210;DHT22;63796;53.136;14.882;2024-02-26T06:12:10;1.00;99.90
75210;DHT22;63796;53.136;14.882;2024-02-26T06:14:37;1.00;99.90
75210;DHT22;63796;53.136;14.882;2024-02-26T06:17:04;1.00;99.90
75210;DHT22;63796;53.136;14.882;2024-02-26T06:19:32;1.10;99.90
75210;DHT22;63796;53.136;14.882;2024-02-26T06:21:59;1.20;99.90
75210;DHT22;63796;53.136;14.882;2024-02-26T06:24:27;1.20;99.90
75210;DHT22;63796;53.136;14.882;2024-02-26T06:26:54;1.30;99.90
75210;DHT22;63796;53.136;14.882;2024-02-26T06:29:22;1.30;99.90
75210;DHT22;63796;53.136;14.882;2024-02-26T06:31:49;1.40;99.90
75210;DHT22;63796;53.136;14.882;2024-02-26T06:34:17;1.40;99.90
75210;DHT22;63796;53.136;14.882;2024-02-26T06:36:45;1.50;99.90
75210;DHT22;63796;53.136;14.882;2024-02-26T06:39:12;1.60;99.90
75210;DHT22;63796;53.136;14.882;2024-02-26T06:41:40;1.60;99.90
75210;DHT22;63796;53.136;14.882;2024-02-26T06:44:07;1.50;99.90
75210;DHT22;63796;53.136;14.882;2024-02-26T06:46:35;1.70;99.90
75210;DHT22;63796;53.136;14.882;2024-02-26T06:49:02;1.80;99.90
75210;DHT22;63796;53.136;14.882;2024-02-26T06:51:30;1.80;99.90
75210;DHT22;63796;53.136;14.882;2024-02-26T06:53:57;1.90;99.90
75210;DHT22;63796;53.136;14.882;2024-02-26T06:56:25;2.10;99.90
75210;DHT22;63796;53.136;14.882;2024-02-26T06:58:52;2.30;99.90
75210;DHT22;63796;53.136;14.882;2024-02-26T07:01:22;2.40;99.90
75210;DHT22;63796;53.136;14.882;2024-02-26T07:03:49;2.50;99.90
75210;DHT22;63796;53.136;14.882;2024-02-26T07:06:17;2.50;99.90
75210;DHT22;63796;53.136;14.882;2024-02-26T07:08:44;2.70;99.90
75210;DHT22;63796;53.136;14.882;2024-02-26T07:11:12;2.80;99.90
75210;DHT22;63796;53.136;14.882;2024-02-26T07:13:39;2.80;99.90
75210;DHT22;63796;53.136;14.882;2024-02-26T07:16:08;2.90;99.90
75210;DHT22;63796;53.136;14.882;2024-02-26T07:18:38;3.00;99.90
75210;DHT22;63796;53.136;14.882;2024-02-26T07:21:07;3.10;99.90
75210;DHT22;63796;53.136;14.882;2024-02-26T07:23:35;3.10;99.90
75210;DHT22;63796;53.136;14.882;2024-02-26T07:26:02;3.10;99.90
75210;DHT22;63796;53.136;14.882;2024-02-26T07:28:29;3.20;99.90
75210;DHT22;63796;53.136;14.882;2024-02-26T07:30:57;3.20;99.90
75210;DHT22;63796;53.136;14.882;2024-02-26T07:33:24;3.30;99.90
75210;DHT22;63796;53.136;14.882;2024-02-26T07:35:52;3.60;99.90
75210;DHT22;63796;53.136;14.882;2024-02-26T07:38:20;3.80;99.90
75210;DHT22;63796;53.136;14.882;2024-02-26T07:41:07;4.10;99.90
75210;DHT22;63796;53.136;14.882;2024-02-26T07:43:37;4.40;99.90
75210;DHT22;63796;53.136;14.882;2024-02-26T07:46:05;4.70;99.90
75210;DHT22;63796;53.136;14.882;2024-02-26T07:48:32;5.40;99.90
75210;DHT22;63796;53.136;14.882;2024-02-26T07:51:01;6.50;99.90
75210;DHT22;63796;53.136;14.882;2024-02-26T07:53:30;7.30;99.90
75210;DHT22;63796;53.136;14.882;2024-02-26T07:55:57;7.20;99.90
75210;DHT22;63796;53.136;14.882;2024-02-26T07:58:25;6.70;99.90
75210;DHT22;63796;53.136;14.882;2024-02-26T08:00:52;6.30;99.90
75210;DHT22;63796;53.136;14.882;2024-02-26T08:03:20;6.40;99.90
75210;DHT22;63796;53.136;14.882;2024-02-26T08:05:47;6.40;99.90
75210;DHT22;63796;53.136;14.882;2024-02-26T08:08:15;6.20;99.90
75210;DHT22;63796;53.136;14.882;2024-02-26T08:10:42;6.30;99.90
75210;DHT22;63796;53.136;14.882;2024-02-26T08:13:12;7.20;99.90
75210;DHT22;63796;53.136;14.882;2024-02-26T08:15:39;7.60;99.90
75210;DHT22;63796;53.136;14.882;2024-02-26T08:18:06;6.90;99.90
75210;DHT22;63796;53.136;14.882;2024-02-26T08:20:34;6.50;99.90
75210;DHT22;63796;53.136;14.882;2024-02-26T08:23:04;6.70;99.90
75210;DHT22;63796;53.136;14.882;2024-02-26T08:25:31;7.10;99.90
75210;DHT22;63796;53.136;14.882;2024-02-26T08:27:59;7.70;99.90
75210;DHT22;63796;53.136;14.882;2024-02-26T08:30:26;7.50;99.90
75210;DHT22;63796;53.136;14.882;2024-02-26T08:32:54;8.80;99.90
75210;DHT22;63796;53.136;14.882;2024-02-26T08:35:24;10.80;99.90
75210;DHT22;63796;53.136;14.882;2024-02-26T08:37:53;11.40;99.90
75210;DHT22;63796;53.136;14.882;2024-02-26T08:40:21;10.40;99.90
75210;DHT22;63796;53.136;14.882;2024-02-26T08:42:48;9.80;99.90
75210;DHT22;63796;53.136;14.882;2024-02-26T08:45:16;9.30;99.90
75210;DHT22;63796;53.136;14.882;2024-02-26T08:47:44;9.70;99.90
75210;DHT22;63796;53.136;14.882;2024-02-26T08:50:13;9.80;99.90
75210;DHT22;63796;53.136;14.882;2024-02-26T08:52:41;9.30;99.90
75210;DHT22;63796;53.136;14.882;2024-02-26T08:55:09;9.60;99.90
75210;DHT22;63796;53.136;14.882;2024-02-26T08:57:36;9.00;99.90
75210;DHT22;63796;53.136;14.882;2024-02-26T09:00:05;8.50;99.90
75210;DHT22;63796;53.136;14.882;2024-02-26T09:02:33;8.50;99.90
75210;DHT22;63796;53.136;14.882;2024-02-26T09:05:01;8.50;99.90
75210;DHT22;63796;53.136;14.882;2024-02-26T09:07:28;8.60;99.90
75210;DHT22;63796;53.136;14.882;2024-02-26T09:09:56;9.10;99.90
75210;DHT22;63796;53.136;14.882;2024-02-26T09:12:23;9.40;99.90
75210;DHT22;63796;53.136;14.882;2024-02-26T09:14:51;9.60;99.90
75210;DHT22;63796;53.136;14.882;2024-02-26T09:17:19;9.80;99.90
75210;DHT22;63796;53.136;14.882;2024-02-26T09:19:46;10.20;99.90
75210;DHT22;63796;53.136;14.882;2024-02-26T09:22:14;10.50;99.90
75210;DHT22;63796;53.136;14.882;2024-02-26T09:24:44;10.70;99.90
75210;DHT22;63796;53.136;14.882;2024-02-26T09:27:12;10.30;99.90
75210;DHT22;63796;53.136;14.882;2024-02-26T09:29:40;10.40;99.90
75210;DHT22;63796;53.136;14.882;2024-02-26T09:32:07;10.80;99.90
75210;DHT22;63796;53.136;14.882;2024-02-26T09:34:34;10.90;99.90
75210;DHT22;63796;53.136;14.882;2024-02-26T09:37:02;11.20;99.90
75210;DHT22;63796;53.136;14.882;2024-02-26T09:39:41;11.40;99.90
75210;DHT22;63796;53.136;14.882;2024-02-26T09:42:09;11.50;99.90
75210;DHT22;63796;53.136;14.882;2024-02-26T09:44:38;11.50;99.90
75210;DHT22;63796;53.136;14.882;2024-02-26T09:47:09;11.60;99.90
75210;DHT22;63796;53.136;14.882;2024-02-26T09:49:39;11.80;99.90
75210;DHT22;63796;53.136;14.882;2024-02-26T09:52:06;11.90;99.90
75210;DHT22;63796;53.136;14.882;2024-02-26T09:54:36;11.80;99.90
75210;DHT22;63796;53.136;14.882;2024-02-26T09:57:06;11.70;99.90
75210;DHT22;63796;53.136;14.882;2024-02-26T09:59:43;11.80;99.90
75210;DHT22;63796;53.136;14.882;2024-02-26T10:02:13;11.80;99.90
75210;DHT22;63796;53.136;14.882;2024-02-26T10:04:42;11.70;99.90
75210;DHT22;63796;53.136;14.882;2024-02-26T10:07:16;11.50;99.90
75210;DHT22;63796;53.136;14.882;2024-02-26T10:09:46;11.30;99.90
75210;DHT22;63796;53.136;14.882;2024-02-26T10:12:13;11.60;99.90
75210;DHT22;63796;53.136;14.882;2024-02-26T10:14:44;11.60;99.90
75210;DHT22;63796;53.136;14.882;2024-02-26T10:17:14;12.00;99.90
75210;DHT22;63796;53.136;14.882;2024-02-26T10:19:42;12.00;99.90
75210;DHT22;63796;53.136;14.882;2024-02-26T10:22:09;12.10;99.90
75210;DHT22;63796;53.136;14.882;2024-02-26T10:24:37;12.20;99.90
75210;DHT22;63796;53.136;14.882;2024-02-26T10:27:05;12.30;99.90
75210;DHT22;63796;53.136;14.882;2024-02-26T10:29:32;12.60;99.90
75210;DHT22;63796;53.136;14.882;2024-02-26T10:32:00;12.80;99.90
75210;DHT22;63796;53.136;14.882;2024-02-26T10:34:28;12.80;99.90
75210;DHT22;63796;53.136;14.882;2024-02-26T10:36:55;13.00;99.90
75210;DHT22;63796;53.136;14.882;2024-02-26T10:39:26;13.20;99.90
75210;DHT22;63796;53.136;14.882;2024-02-26T10:41:53;14.10;99.90
75210;DHT22;63796;53.136;14.882;2024-02-26T10:44:20;14.50;99.90
75210;DHT22;63796;53.136;14.882;2024-02-26T10:46:49;15.10;99.90
75210;DHT22;63796;53.136;14.882;2024-02-26T10:49:17;15.40;99.90
75210;DHT22;63796;53.136;14.882;2024-02-26T10:51:55;15.30;99.90
75210;DHT22;63796;53.136;14.882;2024-02-26T10:54:26;14.40;99.90
75210;DHT22;63796;53.136;14.882;2024-02-26T10:56:57;14.10;99.90
75210;DHT22;63796;53.136;14.882;2024-02-26T10:59:26;13.60;99.90
75210;DHT22;63796;53.136;14.882;2024-02-26T11:01:53;13.40;99.90
75210;DHT22;63796;53.136;14.882;2024-02-26T11:04:22;13.50;99.90
75210;DHT22;63796;53.136;14.882;2024-02-26T11:06:52;13.50;99.90
75210;DHT22;63796;53.136;14.882;2024-02-26T11:09:24;14.50;99.90
75210;DHT22;63796;53.136;14.882;2024-02-26T11:11:52;16.50;99.90
75210;DHT22;63796;53.136;14.882;2024-02-26T11:14:22;17.00;99.90
75210;DHT22;63796;53.136;14.882;2024-02-26T11:16:54;16.40;99.90
75210;DHT22;63796;53.136;14.882;2024-02-26T11:19:22;15.20;99.90
75210;DHT22;63796;53.136;14.882;2024-02-26T11:21:51;14.60;99.90
75210;DHT22;63796;53.136;14.882;2024-02-26T11:24:19;14.60;99.90
75210;DHT22;63796;53.136;14.882;2024-02-26T11:26:48;15.80;99.90
75210;DHT22;63796;53.136;14.882;2024-02-26T11:29:19;15.90;99.90
75210;DHT22;63796;53.136;14.882;2024-02-26T11:31:52;16.80;99.90
75210;DHT22;63796;53.136;14.882;2024-02-26T11:34:19;16.70;99.90
75210;DHT22;63796;53.136;14.882;2024-02-26T11:36:47;16.20;99.90
75210;DHT22;63796;53.136;14.882;2024-02-26T11:39:17;15.50;99.90
75210;DHT22;63796;53.136;14.882;2024-02-26T11:41:45;15.10;99.90
75210;DHT22;63796;53.136;14.882;2024-02-26T11:44:13;15.00;99.90
75210;DHT22;63796;53.136;14.882;2024-02-26T11:46:56;14.90;99.90
75210;DHT22;63796;53.136;14.882;2024-02-26T11:51:51;14.40;99.90
75210;DHT22;63796;53.136;14.882;2024-02-26T11:54:38;14.70;99.90
75210;DHT22;63796;53.136;14.882;2024-02-26T12:00:10;14.40;99.90
75210;DHT22;63796;53.136;14.882;2024-02-26T12:07:47;15.00;99.90
75210;DHT22;63796;53.136;14.882;2024-02-26T12:13:10;15.10;99.90
75210;DHT22;63796;53.136;14.882;2024-02-26T12:16:09;14.70;99.90
75210;DHT22;63796;53.136;14.882;2024-02-26T12:18:33;14.70;99.90
75210;DHT22;63796;53.136;14.882;2024-02-26T12:21:02;15.00;99.90
75210;DHT22;63796;53.136;14.882;2024-02-26T12:23:31;15.30;99.90
75210;DHT22;63796;53.136;14.882;2024-02-26T12:25:59;15.20;99.90
75210;DHT22;63796;53.136;14.882;2024-02-26T12:28:31;15.10;99.90
75210;DHT22;63796;53.136;14.882;2024-02-26T12:31:00;15.10;99.90
75210;DHT22;63796;53.136;14.882;2024-02-26T12:33:28;15.10;99.90
75210;DHT22;63796;53.136;14.882;2024-02-26T12:35:58;15.30;99.90
75210;DHT22;63796;53.136;14.882;2024-02-26T12:38:26;15.20;99.90
75210;DHT22;63796;53.136;14.882;2024-02-26T12:40:54;15.50;99.90
75210;DHT22;63796;53.136;14.882;2024-02-26T12:43:21;16.30;99.90
75210;DHT22;63796;53.136;14.882;2024-02-26T12:45:51;17.00;99.90
75210;DHT22;63796;53.136;14.882;2024-02-26T12:48:18;18.00;99.90
75210;DHT22;63796;53.136;14.882;2024-02-26T12:50:46;18.40;99.90
75210;DHT22;63796;53.136;14.882;2024-02-26T12:53:16;18.40;99.90
75210;DHT22;63796;53.136;14.882;2024-02-26T12:55:44;17.90;99.90
75210;DHT22;63796;53.136;14.882;2024-02-26T12:58:12;17.30;99.90
75210;DHT22;63796;53.136;14.882;2024-02-26T13:00:41;16.70;99.90
75210;DHT22;63796;53.136;14.882;2024-02-26T13:03:11;16.30;99.90
75210;DHT22;63796;53.136;14.882;2024-02-26T13:05:38;16.70;99.90
75210;DHT22;63796;53.136;14.882;2024-02-26T13:08:08;17.20;99.90
75210;DHT22;63796;53.136;14.882;2024-02-26T13:10:36;16.90;99.90
75210;DHT22;63796;53.136;14.882;2024-02-26T13:13:04;17.00;99.90
75210;DHT22;63796;53.136;14.882;2024-02-26T13:15:32;16.80;99.90
75210;DHT22;63796;53.136;14.882;2024-02-26T13:18:12;17.40;99.90
75210;DHT22;63796;53.136;14.882;2024-02-26T13:20:41;17.20;99.90
75210;DHT22;63796;53.136;14.882;2024-02-26T13:23:13;17.10;99.90
75210;DHT22;63796;53.136;14.882;2024-02-26T13:25:41;17.10;99.90
75210;DHT22;63796;53.136;14.882;2024-02-26T13:28:15;16.80;99.90
75210;DHT22;63796;53.136;14.882;2024-02-26T13:30:51;16.20;99.90
75210;DHT22;63796;53.136;14.882;2024-02-26T13:33:19;15.40;99.90
75210;DHT22;63796;53.136;14.882;2024-02-26T13:35:48;15.30;99.90
75210;DHT22;63796;53.136;14.882;2024-02-26T13:38:16;15.10;99.90
75210;DHT22;63796;53.136;14.882;2024-02-26T13:40:44;15.00;99.90
75210;DHT22;63796;53.136;14.882;2024-02-26T13:43:12;15.00;99.90
75210;DHT22;63796;53.136;14.882;2024-02-26T13:45:39;14.90;99.90
75210;DHT22;63796;53.136;14.882;2024-02-26T13:48:09;14.40;99.90
75210;DHT22;63796;53.136;14.882;2024-02-26T13:50:39;14.00;99.90
75210;DHT22;63796;53.136;14.882;2024-02-26T13:53:07;13.70;99.90
75210;DHT22;63796;53.136;14.882;2024-02-26T13:55:35;13.60;99.90
75210;DHT22;63796;53.136;14.882;2024-02-26T13:58:03;13.30;99.90
75210;DHT22;63796;53.136;14.882;2024-02-26T14:00:31;13.20;99.90
75210;DHT22;63796;53.136;14.882;2024-02-26T14:03:01;12.90;99.90
75210;DHT22;63796;53.136;14.882;2024-02-26T14:05:30;12.90;99.90
75210;DHT22;63796;53.136;14.882;2024-02-26T14:08:00;12.90;99.90
75210;DHT22;63796;53.136;14.882;2024-02-26T14:10:27;12.80;99.90
75210;DHT22;63796;53.136;14.882;2024-02-26T14:12:55;12.80;99.90
75210;DHT22;63796;53.136;14.882;2024-02-26T14:15:23;12.80;99.90
75210;DHT22;63796;53.136;14.882;2024-02-26T14:17:52;12.50;99.90
75210;DHT22;63796;53.136;14.882;2024-02-26T14:20:26;12.50;99.90
75210;DHT22;63796;53.136;14.882;2024-02-26T14:22:53;12.50;99.90
75210;DHT22;63796;53.136;14.882;2024-02-26T14:25:21;12.50;99.90
75210;DHT22;63796;53.136;14.882;2024-02-26T14:27:50;12.60;99.90
75210;DHT22;63796;53.136;14.882;2024-02-26T14:30:17;12.40;99.90
75210;DHT22;63796;53.136;14.882;2024-02-26T14:32:44;12.40;99.90
75210;DHT22;63796;53.136;14.882;2024-02-26T14:35:13;12.30;99.90
75210;DHT22;63796;53.136;14.882;2024-02-26T14:37:44;11.90;99.90
75210;DHT22;63796;53.136;14.882;2024-02-26T14:40:14;11.80;99.90
75210;DHT22;63796;53.136;14.882;2024-02-26T14:42:42;11.70;99.90
75210;DHT22;63796;53.136;14.882;2024-02-26T14:45:10;11.70;99.90
75210;DHT22;63796;53.136;14.882;2024-02-26T14:47:38;11.60;99.90
75210;DHT22;63796;53.136;14.882;2024-02-26T14:50:07;11.50;99.90
75210;DHT22;63796;53.136;14.882;2024-02-26T14:52:35;11.50;99.90
75210;DHT22;63796;53.136;14.882;2024-02-26T14:55:03;11.50;99.90
75210;DHT22;63796;53.136;14.882;2024-02-26T14:57:32;11.60;99.90
75210;DHT22;63796;53.136;14.882;2024-02-26T15:00:00;11.60;99.90
75210;DHT22;63796;53.136;14.882;2024-02-26T15:02:28;11.40;99.90
75210;DHT22;63796;53.136;14.882;2024-02-26T15:04:58;11.30;99.90
75210;DHT22;63796;53.136;14.882;2024-02-26T15:07:26;11.30;99.90
75210;DHT22;63796;53.136;14.882;2024-02-26T15:09:54;11.30;99.90
75210;DHT22;63796;53.136;14.882;2024-02-26T15:12:24;11.20;99.90
75210;DHT22;63796;53.136;14.882;2024-02-26T15:14:55;11.10;99.90
75210;DHT22;63796;53.136;14.882;2024-02-26T15:17:24;11.20;99.90
75210;DHT22;63796;53.136;14.882;2024-02-26T15:19:52;11.10;99.90
75210;DHT22;63796;53.136;14.882;2024-02-26T15:22:19;11.10;99.90
75210;DHT22;63796;53.136;14.882;2024-02-26T15:24:47;11.00;99.90
75210;DHT22;63796;53.136;14.882;2024-02-26T15:27:14;10.90;99.90
75210;DHT22;63796;53.136;14.882;2024-02-26T15:29:42;10.90;99.90
75210;DHT22;63796;53.136;14.882;2024-02-26T15:32:10;10.80;99.90
75210;DHT22;63796;53.136;14.882;2024-02-26T15:34:37;10.70;99.90
75210;DHT22;63796;53.136;14.882;2024-02-26T15:37:05;10.70;99.90
75210;DHT22;63796;53.136;14.882;2024-02-26T15:39:33;10.60;99.90
75210;DHT22;63796;53.136;14.882;2024-02-26T15:42:02;10.50;99.90
75210;DHT22;63796;53.136;14.882;2024-02-26T15:44:30;10.30;99.90
75210;DHT22;63796;53.136;14.882;2024-02-26T15:46:58;10.40;99.90